sensor_id;sensor_type;location;lat;lon;timestamp;P1;durP1;ratioP1;P2;durP2;ratioP2
18580;SDS011;9420;50.876;7.012;2023-04-24T00:01:11;1.10;;;0.70;;
18580;SDS011;9420;50.876;7.012;2023-04-24T00:03:40;1.17;;;0.90;;
18580;SDS011;9420;50.876;7.012;2023-04-24T00:06:07;0.80;;;0.80;;
18580;SDS011;9420;50.876;7.012;2023-04-24T00:08:34;0.57;;;0.53;;
18580;SDS011;9420;50.876;7.012;2023-04-24T00:11:01;2.53;;;0.70;;
18580;SDS011;9420;50.876;7.012;2023-04-24T00:13:30;1.30;;;0.80;;
18580;SDS011;9420;50.876;7.012;2023-04-24T00:15:57;1.47;;;1.00;;
18580;SDS011;9420;50.876;7.012;2023-04-24T00:18:24;0.77;;;0.60;;
18580;SDS011;9420;50.876;7.012;2023-04-24T00:20:51;1.47;;;0.80;;
18580;SDS011;9420;50.876;7.012;2023-04-24T00:23:18;1.13;;;0.87;;
18580;SDS011;9420;50.876;7.012;2023-04-24T00:25:45;0.90;;;0.73;;
18580;SDS011;9420;50.876;7.012;2023-04-24T00:28:12;1.37;;;0.93;;
18580;SDS011;9420;50.876;7.012;2023-04-24T00:30:40;1.00;;;0.50;;
18580;SDS011;9420;50.876;7.012;2023-04-24T00:33:07;1.20;;;0.70;;
18580;SDS011;9420;50.876;7.012;2023-04-24T00:35:34;1.80;;;0.57;;
18580;SDS011;9420;50.876;7.012;2023-04-24T00:38:01;0.57;;;0.53;;
18580;SDS011;9420;50.876;7.012;2023-04-24T00:40:28;0.90;;;0.70;;
18580;SDS011;9420;50.876;7.012;2023-04-24T00:42:56;1.07;;;0.90;;
18580;SDS011;9420;50.876;7.012;2023-04-24T00:45:23;1.07;;;0.70;;
18580;SDS011;9420;50.876;7.012;2023-04-24T00:47:52;1.23;;;0.80;;
18580;SDS011;9420;50.876;7.012;2023-04-24T00:50:20;1.30;;;0.80;;
18580;SDS011;9420;50.876;7.012;2023-04-24T00:52:48;0.70;;;0.70;;
18580;SDS011;9420;50.876;7.012;2023-04-24T00:55:15;0.80;;;0.80;;
18580;SDS011;9420;50.876;7.012;2023-04-24T00:57:43;5.90;;;0.60;;
18580;SDS011;9420;50.876;7.012;2023-04-24T01:00:11;0.60;;;0.60;;
18580;SDS011;9420;50.876;7.012;2023-04-24T01:02:41;3.13;;;0.83;;
18580;SDS011;9420;50.876;7.012;2023-04-24T01:05:12;1.57;;;0.90;;
18580;SDS011;9420;50.876;7.012;2023-04-24T01:07:43;0.60;;;0.60;;
18580;SDS011;9420;50.876;7.012;2023-04-24T01:10:14;2.30;;;1.00;;
18580;SDS011;9420;50.876;7.012;2023-04-24T01:12:42;1.23;;;0.67;;
18580;SDS011;9420;50.876;7.012;2023-04-24T01:15:10;0.90;;;0.73;;
18580;SDS011;9420;50.876;7.012;2023-04-24T01:17:37;1.57;;;1.33;;
18580;SDS011;9420;50.876;7.012;2023-04-24T01:20:05;2.10;;;0.87;;
18580;SDS011;9420;50.876;7.012;2023-04-24T01:22:35;1.50;;;1.40;;
18580;SDS011;9420;50.876;7.012;2023-04-24T01:25:03;1.37;;;1.20;;
18580;SDS011;9420;50.876;7.012;2023-04-24T01:27:31;1.23;;;0.97;;
18580;SDS011;9420;50.876;7.012;2023-04-24T01:29:58;1.93;;;1.23;;
18580;SDS011;9420;50.876;7.012;2023-04-24T01:32:26;2.67;;;1.10;;
18580;SDS011;9420;50.876;7.012;2023-04-24T01:34:54;1.70;;;0.93;;
18580;SDS011;9420;50.876;7.012;2023-04-24T01:37:21;1.80;;;1.27;;
18580;SDS011;9420;50.876;7.012;2023-04-24T01:39:49;1.63;;;1.00;;
18580;SDS011;9420;50.876;7.012;2023-04-24T01:42:16;2.83;;;1.20;;
18580;SDS011;9420;50.876;7.012;2023-04-24T01:44:44;2.17;;;1.70;;
18580;SDS011;9420;50.876;7.012;2023-04-24T01:47:11;1.90;;;1.70;;
18580;SDS011;9420;50.876;7.012;2023-04-24T01:49:38;2.83;;;1.87;;
18580;SDS011;9420;50.876;7.012;2023-04-24T01:52:05;2.80;;;1.90;;
18580;SDS011;9420;50.876;7.012;2023-04-24T01:54:32;3.13;;;1.70;;
18580;SDS011;9420;50.876;7.012;2023-04-24T01:57:01;2.93;;;1.90;;
18580;SDS011;9420;50.876;7.012;2023-04-24T01:59:28;3.33;;;2.40;;
18580;SDS011;9420;50.876;7.012;2023-04-24T02:01:59;2.57;;;1.90;;
18580;SDS011;9420;50.876;7.012;2023-04-24T02:04:27;3.17;;;2.37;;
18580;SDS011;9420;50.876;7.012;2023-04-24T02:06:54;3.77;;;2.20;;
18580;SDS011;9420;50.876;7.012;2023-04-24T02:09:21;2.60;;;2.33;;
18580;SDS011;9420;50.876;7.012;2023-04-24T02:11:48;3.17;;;2.87;;
18580;SDS011;9420;50.876;7.012;2023-04-24T02:14:17;4.90;;;2.57;;
18580;SDS011;9420;50.876;7.012;2023-04-24T02:16:44;4.47;;;2.90;;
18580;SDS011;9420;50.876;7.012;2023-04-24T02:19:11;4.30;;;2.67;;
18580;SDS011;9420;50.876;7.012;2023-04-24T02:21:37;2.93;;;2.60;;
18580;SDS011;9420;50.876;7.012;2023-04-24T02:24:05;5.93;;;3.17;;
18580;SDS011;9420;50.876;7.012;2023-04-24T02:26:32;3.33;;;2.60;;
18580;SDS011;9420;50.876;7.012;2023-04-24T02:28:59;6.43;;;3.30;;
18580;SDS011;9420;50.876;7.012;2023-04-24T02:31:28;7.53;;;3.33;;
18580;SDS011;9420;50.876;7.012;2023-04-24T02:33:55;3.80;;;3.40;;
18580;SDS011;9420;50.876;7.012;2023-04-24T02:36:22;4.73;;;4.00;;
18580;SDS011;9420;50.876;7.012;2023-04-24T02:38:49;9.43;;;4.63;;
18580;SDS011;9420;50.876;7.012;2023-04-24T02:41:16;6.20;;;5.13;;
18580;SDS011;9420;50.876;7.012;2023-04-24T02:43:43;7.57;;;4.80;;
18580;SDS011;9420;50.876;7.012;2023-04-24T02:46:10;6.37;;;4.67;;
18580;SDS011;9420;50.876;7.012;2023-04-24T02:48:38;9.43;;;4.40;;
18580;SDS011;9420;50.876;7.012;2023-04-24T02:51:05;7.37;;;4.97;;
18580;SDS011;9420;50.876;7.012;2023-04-24T02:53:32;8.20;;;5.00;;
18580;SDS011;9420;50.876;7.012;2023-04-24T02:55:59;5.10;;;3.97;;
18580;SDS011;9420;50.876;7.012;2023-04-24T02:58:26;5.57;;;4.53;;
18580;SDS011;9420;50.876;7.012;2023-04-24T03:00:54;6.93;;;4.80;;
18580;SDS011;9420;50.876;7.012;2023-04-24T03:03:22;6.67;;;4.43;;
18580;SDS011;9420;50.876;7.012;2023-04-24T03:05:51;8.13;;;4.23;;
18580;SDS011;9420;50.876;7.012;2023-04-24T03:08:19;7.87;;;4.63;;
18580;SDS011;9420;50.876;7.012;2023-04-24T03:10:46;7.03;;;5.20;;
18580;SDS011;9420;50.876;7.012;2023-04-24T03:13:13;5.87;;;4.63;;
18580;SDS011;9420;50.876;7.012;2023-04-24T03:15:40;6.00;;;5.30;;
18580;SDS011;9420;50.876;7.012;2023-04-24T03:18:07;5.70;;;5.13;;
18580;SDS011;9420;50.876;7.012;2023-04-24T03:20:33;6.97;;;4.90;;
18580;SDS011;9420;50.876;7.012;2023-04-24T03:23:03;6.13;;;5.20;;
18580;SDS011;9420;50.876;7.012;2023-04-24T03:25:30;8.13;;;5.10;;
18580;SDS011;9420;50.876;7.012;2023-04-24T03:27:57;5.73;;;5.10;;
18580;SDS011;9420;50.876;7.012;2023-04-24T03:30:24;6.37;;;5.13;;
18580;SDS011;9420;50.876;7.012;2023-04-24T03:32:51;5.30;;;4.80;;
18580;SDS011;9420;50.876;7.012;2023-04-24T03:35:18;6.77;;;5.67;;
18580;SDS011;9420;50.876;7.012;2023-04-24T03:37:46;9.13;;;5.23;;
18580;SDS011;9420;50.876;7.012;2023-04-24T03:40:14;7.07;;;5.07;;
18580;SDS011;9420;50.876;7.012;2023-04-24T03:42:41;8.33;;;6.10;;
18580;SDS011;9420;50.876;7.012;2023-04-24T03:45:09;11.07;;;6.47;;
18580;SDS011;9420;50.876;7.012;2023-04-24T03:47:36;6.87;;;5.00;;
18580;SDS011;9420;50.876;7.012;2023-04-24T03:50:03;11.73;;;5.43;;
18580;SDS011;9420;50.876;7.012;2023-04-24T03:52:31;9.10;;;5.83;;
18580;SDS011;9420;50.876;7.012;2023-04-24T03:54:58;6.37;;;5.23;;
18580;SDS011;9420;50.876;7.012;2023-04-24T03:57:27;8.70;;;5.67;;
18580;SDS011;9420;50.876;7.012;2023-04-24T03:59:53;6.50;;;4.50;;
18580;SDS011;9420;50.876;7.012;2023-04-24T04:02:21;6.93;;;5.60;;
18580;SDS011;9420;50.876;7.012;2023-04-24T04:04:48;9.43;;;5.80;;
18580;SDS011;9420;50.876;7.012;2023-04-24T04:07:15;9.37;;;5.83;;
18580;SDS011;9420;50.876;7.012;2023-04-24T04:09:42;7.47;;;5.87;;
18580;SDS011;9420;50.876;7.012;2023-04-24T04:12:09;8.13;;;5.43;;
18580;SDS011;9420;50.876;7.012;2023-04-24T04:14:37;9.13;;;6.03;;
18580;SDS011;9420;50.876;7.012;2023-04-24T04:17:04;11.33;;;6.17;;
18580;SDS011;9420;50.876;7.012;2023-04-24T04:19:31;5.93;;;4.90;;
18580;SDS011;9420;50.876;7.012;2023-04-24T04:21:58;8.27;;;5.40;;
18580;SDS011;9420;50.876;7.012;2023-04-24T04:24:25;7.23;;;5.17;;
18580;SDS011;9420;50.876;7.012;2023-04-24T04:26:53;8.20;;;5.57;;
18580;SDS011;9420;50.876;7.012;2023-04-24T04:29:21;9.37;;;5.23;;
18580;SDS011;9420;50.876;7.012;2023-04-24T04:31:52;6.43;;;4.87;;
18580;SDS011;9420;50.876;7.012;2023-04-24T04:34:20;5.33;;;4.63;;
18580;SDS011;9420;50.876;7.012;2023-04-24T04:36:47;6.67;;;4.93;;
18580;SDS011;9420;50.876;7.012;2023-04-24T04:39:15;9.20;;;5.67;;
18580;SDS011;9420;50.876;7.012;2023-04-24T04:41:43;8.80;;;5.60;;
18580;SDS011;9420;50.876;7.012;2023-04-24T04:44:11;11.30;;;5.90;;
18580;SDS011;9420;50.876;7.012;2023-04-24T04:46:39;6.00;;;4.97;;
18580;SDS011;9420;50.876;7.012;2023-04-24T04:49:08;9.33;;;6.73;;
18580;SDS011;9420;50.876;7.012;2023-04-24T04:51:36;9.50;;;5.43;;
18580;SDS011;9420;50.876;7.012;2023-04-24T04:54:03;8.60;;;5.90;;
18580;SDS011;9420;50.876;7.012;2023-04-24T04:56:32;6.57;;;5.23;;
18580;SDS011;9420;50.876;7.012;2023-04-24T04:58:59;6.57;;;5.57;;
18580;SDS011;9420;50.876;7.012;2023-04-24T05:01:26;7.40;;;5.43;;
18580;SDS011;9420;50.876;7.012;2023-04-24T05:03:53;6.17;;;5.40;;
18580;SDS011;9420;50.876;7.012;2023-04-24T05:06:24;9.10;;;6.03;;
18580;SDS011;9420;50.876;7.012;2023-04-24T05:08:51;7.53;;;6.53;;
18580;SDS011;9420;50.876;7.012;2023-04-24T05:11:22;7.60;;;5.33;;
18580;SDS011;9420;50.876;7.012;2023-04-24T05:13:49;11.33;;;5.87;;
18580;SDS011;9420;50.876;7.012;2023-04-24T05:16:16;6.57;;;5.13;;
18580;SDS011;9420;50.876;7.012;2023-04-24T05:18:43;10.63;;;6.07;;
18580;SDS011;9420;50.876;7.012;2023-04-24T05:21:11;8.13;;;6.37;;
18580;SDS011;9420;50.876;7.012;2023-04-24T05:23:40;8.07;;;6.37;;
18580;SDS011;9420;50.876;7.012;2023-04-24T05:26:07;10.47;;;7.20;;
18580;SDS011;9420;50.876;7.012;2023-04-24T05:28:34;6.23;;;5.53;;
18580;SDS011;9420;50.876;7.012;2023-04-24T05:31:01;8.43;;;5.60;;
18580;SDS011;9420;50.876;7.012;2023-04-24T05:33:29;7.63;;;5.77;;
18580;SDS011;9420;50.876;7.012;2023-04-24T05:35:56;10.20;;;6.57;;
18580;SDS011;9420;50.876;7.012;2023-04-24T05:38:23;8.30;;;6.57;;
18580;SDS011;9420;50.876;7.012;2023-04-24T05:40:52;8.53;;;6.57;;
18580;SDS011;9420;50.876;7.012;2023-04-24T05:43:19;8.67;;;6.27;;
18580;SDS011;9420;50.876;7.012;2023-04-24T05:45:46;7.70;;;6.00;;
18580;SDS011;9420;50.876;7.012;2023-04-24T05:48:14;9.27;;;6.27;;
18580;SDS011;9420;50.876;7.012;2023-04-24T05:50:42;7.87;;;5.80;;
18580;SDS011;9420;50.876;7.012;2023-04-24T05:53:09;10.30;;;6.57;;
18580;SDS011;9420;50.876;7.012;2023-04-24T05:55:36;10.80;;;6.73;;
18580;SDS011;9420;50.876;7.012;2023-04-24T05:58:04;5.70;;;5.00;;
18580;SDS011;9420;50.876;7.012;2023-04-24T06:00:32;14.23;;;6.47;;
18580;SDS011;9420;50.876;7.012;2023-04-24T06:02:59;14.20;;;5.30;;
18580;SDS011;9420;50.876;7.012;2023-04-24T06:05:28;7.43;;;5.50;;
18580;SDS011;9420;50.876;7.012;2023-04-24T06:07:56;7.53;;;5.87;;
18580;SDS011;9420;50.876;7.012;2023-04-24T06:10:23;6.43;;;5.27;;
18580;SDS011;9420;50.876;7.012;2023-04-24T06:12:50;8.00;;;5.97;;
18580;SDS011;9420;50.876;7.012;2023-04-24T06:15:19;8.17;;;6.20;;
18580;SDS011;9420;50.876;7.012;2023-04-24T06:17:46;9.80;;;6.60;;
18580;SDS011;9420;50.876;7.012;2023-04-24T06:20:13;6.83;;;5.10;;
18580;SDS011;9420;50.876;7.012;2023-04-24T06:22:40;7.20;;;4.90;;
18580;SDS011;9420;50.876;7.012;2023-04-24T06:25:10;7.17;;;5.30;;
18580;SDS011;9420;50.876;7.012;2023-04-24T06:27:37;6.20;;;4.70;;
18580;SDS011;9420;50.876;7.012;2023-04-24T06:30:06;5.93;;;5.23;;
18580;SDS011;9420;50.876;7.012;2023-04-24T06:32:36;7.73;;;4.63;;
18580;SDS011;9420;50.876;7.012;2023-04-24T06:35:03;5.37;;;4.13;;
18580;SDS011;9420;50.876;7.012;2023-04-24T06:37:32;4.23;;;3.40;;
18580;SDS011;9420;50.876;7.012;2023-04-24T06:39:59;5.13;;;3.03;;
18580;SDS011;9420;50.876;7.012;2023-04-24T06:42:26;3.30;;;2.80;;
18580;SDS011;9420;50.876;7.012;2023-04-24T06:44:53;6.53;;;3.73;;
18580;SDS011;9420;50.876;7.012;2023-04-24T06:47:20;4.97;;;3.23;;
18580;SDS011;9420;50.876;7.012;2023-04-24T06:49:48;7.70;;;3.27;;
18580;SDS011;9420;50.876;7.012;2023-04-24T06:52:17;3.27;;;2.43;;
18580;SDS011;9420;50.876;7.012;2023-04-24T06:54:44;2.50;;;1.50;;
18580;SDS011;9420;50.876;7.012;2023-04-24T06:57:12;1.87;;;1.63;;
18580;SDS011;9420;50.876;7.012;2023-04-24T06:59:39;2.67;;;2.27;;
18580;SDS011;9420;50.876;7.012;2023-04-24T07:02:06;3.97;;;2.50;;
18580;SDS011;9420;50.876;7.012;2023-04-24T07:04:33;2.60;;;1.67;;
18580;SDS011;9420;50.876;7.012;2023-04-24T07:07:01;2.37;;;2.03;;
18580;SDS011;9420;50.876;7.012;2023-04-24T07:09:30;2.70;;;2.03;;
18580;SDS011;9420;50.876;7.012;2023-04-24T07:11:57;2.83;;;1.67;;
18580;SDS011;9420;50.876;7.012;2023-04-24T07:14:24;3.70;;;1.90;;
18580;SDS011;9420;50.876;7.012;2023-04-24T07:16:51;3.37;;;1.90;;
18580;SDS011;9420;50.876;7.012;2023-04-24T07:19:18;1.77;;;1.43;;
18580;SDS011;9420;50.876;7.012;2023-04-24T07:21:45;3.17;;;2.00;;
18580;SDS011;9420;50.876;7.012;2023-04-24T07:24:13;4.77;;;1.90;;
18580;SDS011;9420;50.876;7.012;2023-04-24T07:26:41;3.20;;;1.60;;
18580;SDS011;9420;50.876;7.012;2023-04-24T07:29:08;5.97;;;2.00;;
18580;SDS011;9420;50.876;7.012;2023-04-24T07:31:35;2.33;;;1.60;;
18580;SDS011;9420;50.876;7.012;2023-04-24T07:34:03;1.70;;;1.60;;
18580;SDS011;9420;50.876;7.012;2023-04-24T07:36:30;1.77;;;1.50;;
18580;SDS011;9420;50.876;7.012;2023-04-24T07:38:57;4.63;;;1.70;;
18580;SDS011;9420;50.876;7.012;2023-04-24T07:41:26;2.00;;;1.67;;
18580;SDS011;9420;50.876;7.012;2023-04-24T07:43:54;3.33;;;1.77;;
18580;SDS011;9420;50.876;7.012;2023-04-24T07:46:21;2.50;;;1.93;;
18580;SDS011;9420;50.876;7.012;2023-04-24T07:48:49;4.23;;;2.13;;
18580;SDS011;9420;50.876;7.012;2023-04-24T07:51:17;2.10;;;1.87;;
18580;SDS011;9420;50.876;7.012;2023-04-24T07:53:44;3.47;;;1.97;;
18580;SDS011;9420;50.876;7.012;2023-04-24T07:56:11;3.30;;;2.40;;
18580;SDS011;9420;50.876;7.012;2023-04-24T07:58:39;2.73;;;2.20;;
18580;SDS011;9420;50.876;7.012;2023-04-24T08:01:06;4.43;;;1.93;;
18580;SDS011;9420;50.876;7.012;2023-04-24T08:03:33;3.20;;;2.30;;
18580;SDS011;9420;50.876;7.012;2023-04-24T08:06:01;4.03;;;1.70;;
18580;SDS011;9420;50.876;7.012;2023-04-24T08:08:28;4.50;;;2.10;;
18580;SDS011;9420;50.876;7.012;2023-04-24T08:10:55;3.37;;;2.10;;
18580;SDS011;9420;50.876;7.012;2023-04-24T08:13:22;3.00;;;2.10;;
18580;SDS011;9420;50.876;7.012;2023-04-24T08:15:50;6.23;;;2.93;;
18580;SDS011;9420;50.876;7.012;2023-04-24T08:18:17;8.27;;;3.37;;
18580;SDS011;9420;50.876;7.012;2023-04-24T08:20:44;5.73;;;4.03;;
18580;SDS011;9420;50.876;7.012;2023-04-24T08:23:12;7.57;;;4.17;;
18580;SDS011;9420;50.876;7.012;2023-04-24T08:25:40;6.30;;;3.57;;
18580;SDS011;9420;50.876;7.012;2023-04-24T08:28:08;8.70;;;3.90;;
18580;SDS011;9420;50.876;7.012;2023-04-24T08:30:36;4.87;;;2.63;;
18580;SDS011;9420;50.876;7.012;2023-04-24T08:33:05;1.60;;;1.30;;
18580;SDS011;9420;50.876;7.012;2023-04-24T08:35:32;1.37;;;1.00;;
18580;SDS011;9420;50.876;7.012;2023-04-24T08:37:59;1.37;;;1.00;;
18580;SDS011;9420;50.876;7.012;2023-04-24T08:40:27;4.13;;;1.40;;
18580;SDS011;9420;50.876;7.012;2023-04-24T08:42:55;5.60;;;1.30;;
18580;SDS011;9420;50.876;7.012;2023-04-24T08:45:23;2.37;;;1.00;;
18580;SDS011;9420;50.876;7.012;2023-04-24T08:47:51;1.30;;;1.17;;
18580;SDS011;9420;50.876;7.012;2023-04-24T08:50:21;2.17;;;1.57;;
18580;SDS011;9420;50.876;7.012;2023-04-24T08:52:49;3.93;;;2.40;;
18580;SDS011;9420;50.876;7.012;2023-04-24T08:55:18;2.83;;;2.03;;
18580;SDS011;9420;50.876;7.012;2023-04-24T08:57:49;4.57;;;2.33;;
18580;SDS011;9420;50.876;7.012;2023-04-24T09:00:20;4.93;;;2.27;;
18580;SDS011;9420;50.876;7.012;2023-04-24T09:02:48;3.47;;;2.43;;
18580;SDS011;9420;50.876;7.012;2023-04-24T09:05:16;3.77;;;2.37;;
18580;SDS011;9420;50.876;7.012;2023-04-24T09:07:54;2.67;;;2.40;;
18580;SDS011;9420;50.876;7.012;2023-04-24T09:10:23;4.07;;;2.90;;
18580;SDS011;9420;50.876;7.012;2023-04-24T09:12:52;5.27;;;3.50;;
18580;SDS011;9420;50.876;7.012;2023-04-24T09:15:23;6.93;;;2.80;;
18580;SDS011;9420;50.876;7.012;2023-04-24T09:17:51;8.43;;;3.23;;
18580;SDS011;9420;50.876;7.012;2023-04-24T09:20:19;6.30;;;4.07;;
18580;SDS011;9420;50.876;7.012;2023-04-24T09:22:47;4.90;;;2.80;;
18580;SDS011;9420;50.876;7.012;2023-04-24T09:25:14;4.30;;;3.23;;
18580;SDS011;9420;50.876;7.012;2023-04-24T09:27:42;6.27;;;3.50;;
18580;SDS011;9420;50.876;7.012;2023-04-24T09:30:11;6.50;;;4.07;;
18580;SDS011;9420;50.876;7.012;2023-04-24T09:32:39;10.93;;;3.73;;
18580;SDS011;9420;50.876;7.012;2023-04-24T09:35:11;7.47;;;4.17;;
18580;SDS011;9420;50.876;7.012;2023-04-24T09:37:40;6.93;;;4.37;;
18580;SDS011;9420;50.876;7.012;2023-04-24T09:40:12;4.70;;;4.07;;
18580;SDS011;9420;50.876;7.012;2023-04-24T09:42:45;6.57;;;4.90;;
18580;SDS011;9420;50.876;7.012;2023-04-24T09:45:18;9.73;;;4.73;;
18580;SDS011;9420;50.876;7.012;2023-04-24T09:47:46;7.33;;;5.40;;
18580;SDS011;9420;50.876;7.012;2023-04-24T09:50:19;8.73;;;5.17;;
18580;SDS011;9420;50.876;7.012;2023-04-24T09:52:55;11.27;;;5.20;;
18580;SDS011;9420;50.876;7.012;2023-04-24T09:55:25;10.13;;;6.40;;
18580;SDS011;9420;50.876;7.012;2023-04-24T09:57:54;14.90;;;6.30;;
18580;SDS011;9420;50.876;7.012;2023-04-24T10:00:25;10.10;;;5.93;;
18580;SDS011;9420;50.876;7.012;2023-04-24T10:02:57;9.03;;;7.03;;
18580;SDS011;9420;50.876;7.012;2023-04-24T10:05:27;9.40;;;6.43;;
18580;SDS011;9420;50.876;7.012;2023-04-24T10:07:56;11.07;;;6.03;;
18580;SDS011;9420;50.876;7.012;2023-04-24T10:10:28;8.50;;;6.00;;
18580;SDS011;9420;50.876;7.012;2023-04-24T10:12:56;13.90;;;7.60;;
18580;SDS011;9420;50.876;7.012;2023-04-24T10:15:24;10.80;;;6.40;;
18580;SDS011;9420;50.876;7.012;2023-04-24T10:17:53;6.97;;;4.80;;
18580;SDS011;9420;50.876;7.012;2023-04-24T10:20:20;9.00;;;5.50;;
18580;SDS011;9420;50.876;7.012;2023-04-24T10:22:50;10.10;;;5.67;;
18580;SDS011;9420;50.876;7.012;2023-04-24T10:25:20;6.73;;;4.80;;
18580;SDS011;9420;50.876;7.012;2023-04-24T10:27:52;9.87;;;4.80;;
18580;SDS011;9420;50.876;7.012;2023-04-24T10:30:22;6.53;;;4.20;;
18580;SDS011;9420;50.876;7.012;2023-04-24T10:32:50;6.90;;;4.47;;
18580;SDS011;9420;50.876;7.012;2023-04-24T10:35:17;9.40;;;4.30;;
18580;SDS011;9420;50.876;7.012;2023-04-24T10:37:48;6.53;;;4.13;;
18580;SDS011;9420;50.876;7.012;2023-04-24T10:40:25;6.50;;;3.93;;
18580;SDS011;9420;50.876;7.012;2023-04-24T10:42:57;7.10;;;4.20;;
18580;SDS011;9420;50.876;7.012;2023-04-24T10:45:28;6.53;;;4.10;;
18580;SDS011;9420;50.876;7.012;2023-04-24T10:47:58;9.83;;;4.33;;
18580;SDS011;9420;50.876;7.012;2023-04-24T10:50:29;7.73;;;3.97;;
18580;SDS011;9420;50.876;7.012;2023-04-24T10:53:12;6.50;;;3.53;;
18580;SDS011;9420;50.876;7.012;2023-04-24T10:55:43;7.03;;;4.03;;
18580;SDS011;9420;50.876;7.012;2023-04-24T10:58:14;9.90;;;4.77;;
18580;SDS011;9420;50.876;7.012;2023-04-24T11:00:55;7.80;;;4.03;;
18580;SDS011;9420;50.876;7.012;2023-04-24T11:03:25;9.87;;;4.57;;
18580;SDS011;9420;50.876;7.012;2023-04-24T11:05:58;12.90;;;4.90;;
18580;SDS011;9420;50.876;7.012;2023-04-24T11:08:29;10.37;;;4.50;;
18580;SDS011;9420;50.876;7.012;2023-04-24T11:11:03;8.97;;;4.73;;
18580;SDS011;9420;50.876;7.012;2023-04-24T11:16:32;12.90;;;4.00;;
18580;SDS011;9420;50.876;7.012;2023-04-24T11:19:04;11.57;;;5.67;;
18580;SDS011;9420;50.876;7.012;2023-04-24T11:21:41;14.70;;;5.33;;
18580;SDS011;9420;50.876;7.012;2023-04-24T11:24:23;8.37;;;4.83;;
18580;SDS011;9420;50.876;7.012;2023-04-24T11:26:56;10.97;;;5.00;;
18580;SDS011;9420;50.876;7.012;2023-04-24T11:29:41;8.93;;;4.87;;
18580;SDS011;9420;50.876;7.012;2023-04-24T11:32:17;13.93;;;5.20;;
18580;SDS011;9420;50.876;7.012;2023-04-24T11:34:49;8.90;;;5.33;;
18580;SDS011;9420;50.876;7.012;2023-04-24T11:37:18;9.77;;;5.93;;
18580;SDS011;9420;50.876;7.012;2023-04-24T11:39:45;13.20;;;6.27;;
18580;SDS011;9420;50.876;7.012;2023-04-24T11:42:13;13.27;;;7.13;;
18580;SDS011;9420;50.876;7.012;2023-04-24T11:44:43;18.13;;;8.77;;
18580;SDS011;9420;50.876;7.012;2023-04-24T11:47:12;11.40;;;5.90;;
18580;SDS011;9420;50.876;7.012;2023-04-24T11:49:39;11.63;;;6.50;;
18580;SDS011;9420;50.876;7.012;2023-04-24T11:52:06;13.73;;;6.63;;
18580;SDS011;9420;50.876;7.012;2023-04-24T11:54:33;12.13;;;6.13;;
18580;SDS011;9420;50.876;7.012;2023-04-24T11:57:03;10.17;;;4.37;;
18580;SDS011;9420;50.876;7.012;2023-04-24T11:59:35;10.93;;;4.03;;
18580;SDS011;9420;50.876;7.012;2023-04-24T12:02:04;7.23;;;4.43;;
18580;SDS011;9420;50.876;7.012;2023-04-24T12:04:38;7.83;;;4.10;;
18580;SDS011;9420;50.876;7.012;2023-04-24T12:07:07;9.53;;;4.00;;
18580;SDS011;9420;50.876;7.012;2023-04-24T12:09:41;8.83;;;4.70;;
18580;SDS011;9420;50.876;7.012;2023-04-24T12:12:11;7.93;;;4.73;;
18580;SDS011;9420;50.876;7.012;2023-04-24T12:14:47;7.93;;;5.37;;
18580;SDS011;9420;50.876;7.012;2023-04-24T12:17:17;7.03;;;4.60;;
18580;SDS011;9420;50.876;7.012;2023-04-24T12:19:50;10.57;;;5.00;;
18580;SDS011;9420;50.876;7.012;2023-04-24T12:22:18;14.77;;;5.57;;
18580;SDS011;9420;50.876;7.012;2023-04-24T12:24:58;7.50;;;4.57;;
18580;SDS011;9420;50.876;7.012;2023-04-24T12:27:30;11.63;;;4.90;;
18580;SDS011;9420;50.876;7.012;2023-04-24T12:29:59;10.03;;;4.20;;
18580;SDS011;9420;50.876;7.012;2023-04-24T12:32:31;10.83;;;5.20;;
18580;SDS011;9420;50.876;7.012;2023-04-24T12:34:58;9.20;;;5.60;;
18580;SDS011;9420;50.876;7.012;2023-04-24T12:37:25;9.80;;;5.03;;
18580;SDS011;9420;50.876;7.012;2023-04-24T12:40:02;17.57;;;6.80;;
18580;SDS011;9420;50.876;7.012;2023-04-24T12:42:32;11.10;;;5.53;;
18580;SDS011;9420;50.876;7.012;2023-04-24T12:45:02;16.80;;;6.13;;
18580;SDS011;9420;50.876;7.012;2023-04-24T12:47:33;12.23;;;6.33;;
18580;SDS011;9420;50.876;7.012;2023-04-24T12:50:01;12.43;;;5.60;;
18580;SDS011;9420;50.876;7.012;2023-04-24T12:52:29;11.30;;;4.93;;
18580;SDS011;9420;50.876;7.012;2023-04-24T12:54:57;10.07;;;4.27;;
18580;SDS011;9420;50.876;7.012;2023-04-24T12:57:27;9.50;;;4.13;;
18580;SDS011;9420;50.876;7.012;2023-04-24T12:59:56;10.43;;;4.43;;
18580;SDS011;9420;50.876;7.012;2023-04-24T13:02:26;11.13;;;5.07;;
18580;SDS011;9420;50.876;7.012;2023-04-24T13:04:57;7.83;;;3.80;;
18580;SDS011;9420;50.876;7.012;2023-04-24T13:07:25;15.87;;;4.90;;
18580;SDS011;9420;50.876;7.012;2023-04-24T13:09:53;15.43;;;5.37;;
18580;SDS011;9420;50.876;7.012;2023-04-24T13:12:22;10.57;;;5.17;;
18580;SDS011;9420;50.876;7.012;2023-04-24T13:14:50;11.60;;;4.40;;
18580;SDS011;9420;50.876;7.012;2023-04-24T13:17:17;10.77;;;4.50;;
18580;SDS011;9420;50.876;7.012;2023-04-24T13:19:44;8.30;;;4.33;;
18580;SDS011;9420;50.876;7.012;2023-04-24T13:22:12;8.17;;;5.43;;
18580;SDS011;9420;50.876;7.012;2023-04-24T13:24:40;12.87;;;4.97;;
18580;SDS011;9420;50.876;7.012;2023-04-24T13:27:07;9.83;;;4.80;;
18580;SDS011;9420;50.876;7.012;2023-04-24T13:29:35;10.70;;;4.90;;
18580;SDS011;9420;50.876;7.012;2023-04-24T13:32:02;9.63;;;5.03;;
18580;SDS011;9420;50.876;7.012;2023-04-24T13:34:29;8.93;;;4.57;;
18580;SDS011;9420;50.876;7.012;2023-04-24T13:36:56;10.03;;;4.80;;
18580;SDS011;9420;50.876;7.012;2023-04-24T13:39:26;13.37;;;4.93;;
18580;SDS011;9420;50.876;7.012;2023-04-24T13:41:53;11.53;;;4.70;;
18580;SDS011;9420;50.876;7.012;2023-04-24T13:44:21;11.50;;;5.63;;
18580;SDS011;9420;50.876;7.012;2023-04-24T13:46:50;8.97;;;4.63;;
18580;SDS011;9420;50.876;7.012;2023-04-24T13:49:21;7.83;;;4.27;;
18580;SDS011;9420;50.876;7.012;2023-04-24T13:51:50;8.83;;;5.23;;
18580;SDS011;9420;50.876;7.012;2023-04-24T13:54:17;7.17;;;4.63;;
18580;SDS011;9420;50.876;7.012;2023-04-24T13:56:46;14.77;;;5.23;;
18580;SDS011;9420;50.876;7.012;2023-04-24T13:59:13;8.23;;;4.50;;
18580;SDS011;9420;50.876;7.012;2023-04-24T14:01:40;9.27;;;4.97;;
18580;SDS011;9420;50.876;7.012;2023-04-24T14:04:07;9.40;;;5.03;;
18580;SDS011;9420;50.876;7.012;2023-04-24T14:06:34;8.00;;;5.23;;
18580;SDS011;9420;50.876;7.012;2023-04-24T14:09:04;8.50;;;5.07;;
18580;SDS011;9420;50.876;7.012;2023-04-24T14:11:33;10.13;;;5.07;;
18580;SDS011;9420;50.876;7.012;2023-04-24T14:14:01;12.50;;;5.00;;
18580;SDS011;9420;50.876;7.012;2023-04-24T14:16:29;10.70;;;4.80;;
18580;SDS011;9420;50.876;7.012;2023-04-24T14:18:56;8.57;;;4.40;;
18580;SDS011;9420;50.876;7.012;2023-04-24T14:21:23;8.37;;;5.47;;
18580;SDS011;9420;50.876;7.012;2023-04-24T14:23:50;9.37;;;4.27;;
18580;SDS011;9420;50.876;7.012;2023-04-24T14:26:17;8.47;;;4.07;;
18580;SDS011;9420;50.876;7.012;2023-04-24T14:28:45;7.77;;;4.50;;
18580;SDS011;9420;50.876;7.012;2023-04-24T14:31:13;10.97;;;4.23;;
18580;SDS011;9420;50.876;7.012;2023-04-24T14:33:41;8.23;;;4.07;;
18580;SDS011;9420;50.876;7.012;2023-04-24T14:36:08;5.60;;;3.80;;
18580;SDS011;9420;50.876;7.012;2023-04-24T14:38:35;6.83;;;3.90;;
18580;SDS011;9420;50.876;7.012;2023-04-24T14:41:02;8.63;;;4.27;;
18580;SDS011;9420;50.876;7.012;2023-04-24T14:43:34;10.43;;;4.70;;
18580;SDS011;9420;50.876;7.012;2023-04-24T14:46:01;10.47;;;3.93;;
18580;SDS011;9420;50.876;7.012;2023-04-24T14:48:30;8.50;;;3.93;;
18580;SDS011;9420;50.876;7.012;2023-04-24T14:50:57;4.87;;;3.17;;
18580;SDS011;9420;50.876;7.012;2023-04-24T14:53:24;6.60;;;4.17;;
18580;SDS011;9420;50.876;7.012;2023-04-24T14:55:51;10.83;;;4.33;;
18580;SDS011;9420;50.876;7.012;2023-04-24T14:58:18;7.37;;;3.83;;
18580;SDS011;9420;50.876;7.012;2023-04-24T15:00:45;12.37;;;3.60;;
18580;SDS011;9420;50.876;7.012;2023-04-24T15:03:14;8.10;;;4.00;;
18580;SDS011;9420;50.876;7.012;2023-04-24T15:05:43;6.87;;;3.77;;
18580;SDS011;9420;50.876;7.012;2023-04-24T15:08:12;7.23;;;4.03;;